Airfield :
LOGIN :

Register | Disclaimer

   EN    FR    IT 

 










Legend :    VFR   Marginal VFR   IFR   Intensive IFR   Very Intensive IFR
Visi :
Ceiling :
>= 8 km
>= 3000ft
5 to 8 km
1000 to 3000 ft
1500m to 5 km
500 to 1000 ft
800 to 1500m
200 to 500 ft
< 800m
< 200 ft
Symbols :   Thunderstorms  Fog  Heavy snow  Heavy precipitations  Wind > 20 kt
SIGMETs :     Misc.  Thunderstorms  Icing  Turbulence  Mountain Waves  Volcanic Ashes






- Airport Elevation : 29 ft
- IATA code : SVG


ENZV - Sola

CURRENT METAR :
  • 231020Z 29018G28KT 9000 -DZRA FEW005 SCT010CB BKN016 04/03 Q0993 TEMPO SHRA

EXPIRED METARs :
  • 230950Z 28016KT 7000 -DZRA FEW007 SCT013CB BKN018 04/03 Q0993 TEMPO SHRA
  • 230920Z 28016G26KT 9000 RADZ FEW007 SCT012CB BKN020 04/03 Q0993 TEMPO -SHRA
  • 230850Z 25015G27KT 220V300 7000 RADZ FEW006 SCT012CB BKN022 05/02 Q0993 TEMPO 27025G35KT
  • 230820Z 26017KT 9999 RA FEW015CB SCT020 BKN035 05/03 Q0993 TEMPO -SHRA
  • 230750Z 26021G34KT 6000 SHRA SCT012CB BKN019 05/03 Q0993 TEMPO -SHRA

TAF COR TAF ENZV
Valid from the 23 at 06:00 until the 24 at 06:00 UTC


2306/2406 26020KT 9999 -SHRA SCT015TCU BKN025
TEMPO 2306/2312 27025G35KT
TEMPO 2306/2314 3000 SHRAGS BKN012CB
PROB30
TEMPO 2306/2314 TS
BECMG 2311/2313 33012KT
TEMPO 2400/2406 2000 SHSNRA VV010



MET'MAP, your aeronautical weather chart ! - Copyright ORBIFLY December 2007 - Disclaimer

ORBIFLY MET'MAP TEAM :

Programming & Development : Alexandra Zaïnal
Concept & original design : Baudouin d'Aumeries
Assistance for programming : Marc-Olivier Méhu
Technical & hardware support : Manuel Goepfert

Contact : metmap@orbifly.com




SOURCES & CREDITS :

   NOAA